sensor_id;sensor_type;location;lat;lon;timestamp;P1;durP1;ratioP1;P2;durP2;ratioP2
64487;SDS011;50864;45.050;39.014;2023-07-13T00:01:53;5.37;;;3.05;;
64487;SDS011;50864;45.050;39.014;2023-07-13T00:04:20;5.85;;;2.95;;
64487;SDS011;50864;45.050;39.014;2023-07-13T00:06:46;5.78;;;2.80;;
64487;SDS011;50864;45.050;39.014;2023-07-13T00:09:13;5.80;;;2.75;;
64487;SDS011;50864;45.050;39.014;2023-07-13T00:11:40;5.85;;;2.60;;
64487;SDS011;50864;45.050;39.014;2023-07-13T00:14:06;6.07;;;2.85;;
64487;SDS011;50864;45.050;39.014;2023-07-13T00:16:33;4.95;;;2.83;;
64487;SDS011;50864;45.050;39.014;2023-07-13T00:18:59;6.20;;;3.00;;
64487;SDS011;50864;45.050;39.014;2023-07-13T00:21:25;6.65;;;2.55;;
64487;SDS011;50864;45.050;39.014;2023-07-13T00:23:51;6.72;;;3.00;;
64487;SDS011;50864;45.050;39.014;2023-07-13T00:26:17;7.20;;;3.10;;
64487;SDS011;50864;45.050;39.014;2023-07-13T00:28:43;5.45;;;2.70;;
64487;SDS011;50864;45.050;39.014;2023-07-13T00:31:09;6.57;;;3.00;;
64487;SDS011;50864;45.050;39.014;2023-07-13T00:33:36;7.05;;;2.83;;
64487;SDS011;50864;45.050;39.014;2023-07-13T00:36:02;5.28;;;2.50;;
64487;SDS011;50864;45.050;39.014;2023-07-13T00:38:28;5.78;;;2.87;;
64487;SDS011;50864;45.050;39.014;2023-07-13T00:40:54;4.68;;;2.67;;
64487;SDS011;50864;45.050;39.014;2023-07-13T00:43:21;4.05;;;2.58;;
64487;SDS011;50864;45.050;39.014;2023-07-13T00:48:16;7.07;;;3.20;;
64487;SDS011;50864;45.050;39.014;2023-07-13T00:50:46;5.82;;;2.70;;
64487;SDS011;50864;45.050;39.014;2023-07-13T00:53:14;5.05;;;3.10;;
64487;SDS011;50864;45.050;39.014;2023-07-13T00:55:39;5.05;;;2.72;;
64487;SDS011;50864;45.050;39.014;2023-07-13T00:58:05;6.97;;;2.95;;
64487;SDS011;50864;45.050;39.014;2023-07-13T01:00:33;6.00;;;2.70;;
64487;SDS011;50864;45.050;39.014;2023-07-13T01:03:00;7.78;;;2.90;;
64487;SDS011;50864;45.050;39.014;2023-07-13T01:05:30;6.47;;;3.03;;
64487;SDS011;50864;45.050;39.014;2023-07-13T01:07:57;6.68;;;3.50;;
64487;SDS011;50864;45.050;39.014;2023-07-13T01:10:36;7.37;;;3.03;;
64487;SDS011;50864;45.050;39.014;2023-07-13T01:13:06;7.10;;;3.10;;
64487;SDS011;50864;45.050;39.014;2023-07-13T01:15:43;7.12;;;3.08;;
64487;SDS011;50864;45.050;39.014;2023-07-13T01:18:12;7.87;;;2.95;;
64487;SDS011;50864;45.050;39.014;2023-07-13T01:20:38;9.45;;;3.22;;
64487;SDS011;50864;45.050;39.014;2023-07-13T01:23:05;9.98;;;3.00;;
64487;SDS011;50864;45.050;39.014;2023-07-13T01:25:32;7.03;;;3.05;;
64487;SDS011;50864;45.050;39.014;2023-07-13T01:27:57;7.07;;;3.15;;
64487;SDS011;50864;45.050;39.014;2023-07-13T01:30:23;7.00;;;3.30;;
64487;SDS011;50864;45.050;39.014;2023-07-13T01:32:49;6.95;;;3.00;;
64487;SDS011;50864;45.050;39.014;2023-07-13T01:35:15;8.85;;;3.10;;
64487;SDS011;50864;45.050;39.014;2023-07-13T01:37:43;6.75;;;3.28;;
64487;SDS011;50864;45.050;39.014;2023-07-13T01:40:11;8.27;;;3.22;;
64487;SDS011;50864;45.050;39.014;2023-07-13T01:42:38;9.93;;;3.37;;
64487;SDS011;50864;45.050;39.014;2023-07-13T01:45:04;9.27;;;3.10;;
64487;SDS011;50864;45.050;39.014;2023-07-13T01:47:30;11.02;;;3.28;;
64487;SDS011;50864;45.050;39.014;2023-07-13T01:49:56;9.90;;;3.50;;
64487;SDS011;50864;45.050;39.014;2023-07-13T01:52:22;9.20;;;3.45;;
64487;SDS011;50864;45.050;39.014;2023-07-13T01:54:50;11.43;;;3.60;;
64487;SDS011;50864;45.050;39.014;2023-07-13T01:57:16;8.10;;;3.30;;
64487;SDS011;50864;45.050;39.014;2023-07-13T01:59:41;8.05;;;3.20;;
64487;SDS011;50864;45.050;39.014;2023-07-13T02:02:10;12.15;;;3.50;;
64487;SDS011;50864;45.050;39.014;2023-07-13T02:04:36;8.98;;;3.78;;
64487;SDS011;50864;45.050;39.014;2023-07-13T02:07:02;9.23;;;3.65;;
64487;SDS011;50864;45.050;39.014;2023-07-13T02:09:28;7.95;;;3.40;;
64487;SDS011;50864;45.050;39.014;2023-07-13T02:11:54;9.45;;;3.53;;
64487;SDS011;50864;45.050;39.014;2023-07-13T02:14:19;8.40;;;3.53;;
64487;SDS011;50864;45.050;39.014;2023-07-13T02:16:46;8.68;;;3.20;;
64487;SDS011;50864;45.050;39.014;2023-07-13T02:19:14;6.62;;;3.65;;
64487;SDS011;50864;45.050;39.014;2023-07-13T02:21:42;9.45;;;3.40;;
64487;SDS011;50864;45.050;39.014;2023-07-13T02:24:10;9.05;;;3.60;;
64487;SDS011;50864;45.050;39.014;2023-07-13T02:26:41;11.02;;;3.95;;
64487;SDS011;50864;45.050;39.014;2023-07-13T02:29:07;7.65;;;3.35;;
64487;SDS011;50864;45.050;39.014;2023-07-13T02:31:33;7.20;;;3.78;;
64487;SDS011;50864;45.050;39.014;2023-07-13T02:33:58;7.00;;;3.87;;
64487;SDS011;50864;45.050;39.014;2023-07-13T02:36:24;12.95;;;3.70;;
64487;SDS011;50864;45.050;39.014;2023-07-13T02:38:50;6.60;;;3.30;;
64487;SDS011;50864;45.050;39.014;2023-07-13T02:41:15;9.48;;;3.55;;
64487;SDS011;50864;45.050;39.014;2023-07-13T02:43:41;7.18;;;3.83;;
64487;SDS011;50864;45.050;39.014;2023-07-13T02:46:08;7.97;;;4.00;;
64487;SDS011;50864;45.050;39.014;2023-07-13T02:48:35;7.82;;;3.80;;
64487;SDS011;50864;45.050;39.014;2023-07-13T02:51:01;8.65;;;3.95;;
64487;SDS011;50864;45.050;39.014;2023-07-13T02:53:27;10.00;;;3.70;;
64487;SDS011;50864;45.050;39.014;2023-07-13T02:55:52;7.37;;;3.70;;
64487;SDS011;50864;45.050;39.014;2023-07-13T02:58:18;8.18;;;3.78;;
64487;SDS011;50864;45.050;39.014;2023-07-13T03:00:45;9.80;;;4.40;;
64487;SDS011;50864;45.050;39.014;2023-07-13T03:03:12;9.80;;;3.92;;
64487;SDS011;50864;45.050;39.014;2023-07-13T03:05:42;8.00;;;3.47;;
64487;SDS011;50864;45.050;39.014;2023-07-13T03:08:09;7.82;;;3.62;;
64487;SDS011;50864;45.050;39.014;2023-07-13T03:10:35;6.53;;;3.08;;
64487;SDS011;50864;45.050;39.014;2023-07-13T03:13:01;6.93;;;3.33;;
64487;SDS011;50864;45.050;39.014;2023-07-13T03:15:27;9.05;;;3.28;;
64487;SDS011;50864;45.050;39.014;2023-07-13T03:17:53;9.95;;;3.33;;
64487;SDS011;50864;45.050;39.014;2023-07-13T03:20:19;6.57;;;3.42;;
64487;SDS011;50864;45.050;39.014;2023-07-13T03:22:46;6.62;;;3.08;;
64487;SDS011;50864;45.050;39.014;2023-07-13T03:25:12;9.85;;;3.40;;
64487;SDS011;50864;45.050;39.014;2023-07-13T03:27:37;7.90;;;3.00;;
64487;SDS011;50864;45.050;39.014;2023-07-13T03:30:06;8.10;;;3.08;;
64487;SDS011;50864;45.050;39.014;2023-07-13T03:32:32;5.20;;;3.00;;
64487;SDS011;50864;45.050;39.014;2023-07-13T03:34:58;5.05;;;2.65;;
64487;SDS011;50864;45.050;39.014;2023-07-13T03:37:24;7.30;;;3.10;;
64487;SDS011;50864;45.050;39.014;2023-07-13T03:39:50;7.07;;;3.05;;
64487;SDS011;50864;45.050;39.014;2023-07-13T03:42:16;6.82;;;3.35;;
64487;SDS011;50864;45.050;39.014;2023-07-13T03:44:42;8.70;;;3.20;;
64487;SDS011;50864;45.050;39.014;2023-07-13T03:47:14;9.02;;;3.10;;
64487;SDS011;50864;45.050;39.014;2023-07-13T03:49:40;9.50;;;3.75;;
64487;SDS011;50864;45.050;39.014;2023-07-13T03:52:07;8.50;;;3.50;;
64487;SDS011;50864;45.050;39.014;2023-07-13T03:54:33;5.00;;;2.62;;
64487;SDS011;50864;45.050;39.014;2023-07-13T03:56:59;6.50;;;3.10;;
64487;SDS011;50864;45.050;39.014;2023-07-13T03:59:26;9.70;;;2.85;;
64487;SDS011;50864;45.050;39.014;2023-07-13T04:01:52;8.05;;;3.08;;
64487;SDS011;50864;45.050;39.014;2023-07-13T04:04:18;6.55;;;2.75;;
64487;SDS011;50864;45.050;39.014;2023-07-13T04:06:43;8.88;;;3.30;;
64487;SDS011;50864;45.050;39.014;2023-07-13T04:09:11;5.90;;;2.58;;
64487;SDS011;50864;45.050;39.014;2023-07-13T04:11:37;5.03;;;2.70;;
64487;SDS011;50864;45.050;39.014;2023-07-13T04:14:02;4.97;;;2.80;;
64487;SDS011;50864;45.050;39.014;2023-07-13T04:16:28;4.15;;;2.60;;
64487;SDS011;50864;45.050;39.014;2023-07-13T04:18:57;5.55;;;3.08;;
64487;SDS011;50864;45.050;39.014;2023-07-13T04:21:26;7.12;;;2.50;;
64487;SDS011;50864;45.050;39.014;2023-07-13T04:23:52;5.80;;;2.62;;
64487;SDS011;50864;45.050;39.014;2023-07-13T04:26:18;6.18;;;2.90;;
64487;SDS011;50864;45.050;39.014;2023-07-13T04:28:46;9.23;;;2.95;;
64487;SDS011;50864;45.050;39.014;2023-07-13T04:31:12;7.87;;;3.30;;
64487;SDS011;50864;45.050;39.014;2023-07-13T04:33:39;6.30;;;2.78;;
64487;SDS011;50864;45.050;39.014;2023-07-13T04:36:05;6.87;;;2.80;;
64487;SDS011;50864;45.050;39.014;2023-07-13T04:38:31;4.55;;;2.40;;
64487;SDS011;50864;45.050;39.014;2023-07-13T04:41:02;5.75;;;2.80;;
64487;SDS011;50864;45.050;39.014;2023-07-13T04:43:27;4.57;;;2.50;;
64487;SDS011;50864;45.050;39.014;2023-07-13T04:45:53;7.20;;;3.00;;
64487;SDS011;50864;45.050;39.014;2023-07-13T04:48:20;5.37;;;3.17;;
64487;SDS011;50864;45.050;39.014;2023-07-13T04:50:53;7.30;;;3.35;;
64487;SDS011;50864;45.050;39.014;2023-07-13T04:53:20;5.82;;;3.03;;
64487;SDS011;50864;45.050;39.014;2023-07-13T04:55:45;5.78;;;2.78;;
64487;SDS011;50864;45.050;39.014;2023-07-13T04:58:12;4.65;;;2.70;;
64487;SDS011;50864;45.050;39.014;2023-07-13T05:00:38;8.23;;;3.03;;
64487;SDS011;50864;45.050;39.014;2023-07-13T05:03:04;5.87;;;2.60;;
64487;SDS011;50864;45.050;39.014;2023-07-13T05:05:30;4.43;;;2.60;;
64487;SDS011;50864;45.050;39.014;2023-07-13T05:07:56;5.45;;;3.10;;
64487;SDS011;50864;45.050;39.014;2023-07-13T05:10:22;4.37;;;2.65;;
64487;SDS011;50864;45.050;39.014;2023-07-13T05:12:48;4.70;;;2.67;;
64487;SDS011;50864;45.050;39.014;2023-07-13T05:15:14;6.53;;;3.00;;
64487;SDS011;50864;45.050;39.014;2023-07-13T05:17:40;7.07;;;3.17;;
64487;SDS011;50864;45.050;39.014;2023-07-13T05:20:06;8.43;;;3.15;;
64487;SDS011;50864;45.050;39.014;2023-07-13T05:22:32;6.90;;;3.20;;
64487;SDS011;50864;45.050;39.014;2023-07-13T05:25:06;7.45;;;3.10;;
64487;SDS011;50864;45.050;39.014;2023-07-13T05:27:32;7.60;;;3.05;;
64487;SDS011;50864;45.050;39.014;2023-07-13T05:29:58;8.13;;;3.28;;
64487;SDS011;50864;45.050;39.014;2023-07-13T05:32:24;5.75;;;3.00;;
64487;SDS011;50864;45.050;39.014;2023-07-13T05:34:50;5.78;;;2.92;;
64487;SDS011;50864;45.050;39.014;2023-07-13T05:37:18;6.22;;;3.30;;
64487;SDS011;50864;45.050;39.014;2023-07-13T05:39:43;6.53;;;3.17;;
64487;SDS011;50864;45.050;39.014;2023-07-13T05:42:09;6.55;;;3.33;;
64487;SDS011;50864;45.050;39.014;2023-07-13T05:44:35;5.22;;;3.08;;
64487;SDS011;50864;45.050;39.014;2023-07-13T05:47:01;6.45;;;3.12;;
64487;SDS011;50864;45.050;39.014;2023-07-13T05:49:27;6.00;;;3.15;;
64487;SDS011;50864;45.050;39.014;2023-07-13T05:51:52;6.78;;;3.20;;
64487;SDS011;50864;45.050;39.014;2023-07-13T05:54:18;5.97;;;3.08;;
64487;SDS011;50864;45.050;39.014;2023-07-13T05:56:44;5.15;;;2.90;;
64487;SDS011;50864;45.050;39.014;2023-07-13T05:59:10;5.82;;;3.20;;
64487;SDS011;50864;45.050;39.014;2023-07-13T06:01:35;6.28;;;2.90;;
64487;SDS011;50864;45.050;39.014;2023-07-13T06:04:01;8.07;;;3.10;;
64487;SDS011;50864;45.050;39.014;2023-07-13T06:06:27;5.03;;;2.62;;
64487;SDS011;50864;45.050;39.014;2023-07-13T06:08:53;6.03;;;2.90;;
64487;SDS011;50864;45.050;39.014;2023-07-13T06:11:20;4.70;;;2.92;;
64487;SDS011;50864;45.050;39.014;2023-07-13T06:13:46;4.95;;;2.83;;
64487;SDS011;50864;45.050;39.014;2023-07-13T06:16:12;6.45;;;3.15;;
64487;SDS011;50864;45.050;39.014;2023-07-13T06:18:38;5.05;;;2.78;;
64487;SDS011;50864;45.050;39.014;2023-07-13T06:21:12;6.10;;;2.95;;
64487;SDS011;50864;45.050;39.014;2023-07-13T06:23:37;5.90;;;3.30;;
64487;SDS011;50864;45.050;39.014;2023-07-13T06:26:04;5.03;;;2.97;;
64487;SDS011;50864;45.050;39.014;2023-07-13T06:28:30;6.05;;;3.35;;
64487;SDS011;50864;45.050;39.014;2023-07-13T06:30:57;6.62;;;2.95;;
64487;SDS011;50864;45.050;39.014;2023-07-13T06:33:24;4.95;;;3.20;;
64487;SDS011;50864;45.050;39.014;2023-07-13T06:35:49;6.00;;;3.12;;
64487;SDS011;50864;45.050;39.014;2023-07-13T06:38:15;7.15;;;3.33;;
64487;SDS011;50864;45.050;39.014;2023-07-13T06:40:41;7.68;;;3.72;;
64487;SDS011;50864;45.050;39.014;2023-07-13T06:43:07;7.80;;;3.60;;
64487;SDS011;50864;45.050;39.014;2023-07-13T06:45:40;5.75;;;2.92;;
64487;SDS011;50864;45.050;39.014;2023-07-13T06:48:06;6.68;;;3.47;;
64487;SDS011;50864;45.050;39.014;2023-07-13T06:50:33;5.28;;;3.20;;
64487;SDS011;50864;45.050;39.014;2023-07-13T06:52:59;5.20;;;2.95;;
64487;SDS011;50864;45.050;39.014;2023-07-13T06:55:27;5.40;;;3.20;;
64487;SDS011;50864;45.050;39.014;2023-07-13T06:57:53;4.47;;;2.90;;
64487;SDS011;50864;45.050;39.014;2023-07-13T07:00:19;7.30;;;3.28;;
64487;SDS011;50864;45.050;39.014;2023-07-13T07:02:45;7.22;;;3.30;;
64487;SDS011;50864;45.050;39.014;2023-07-13T07:05:10;7.43;;;3.22;;
64487;SDS011;50864;45.050;39.014;2023-07-13T07:07:36;5.75;;;3.42;;
64487;SDS011;50864;45.050;39.014;2023-07-13T07:10:02;6.72;;;3.17;;
64487;SDS011;50864;45.050;39.014;2023-07-13T07:12:28;5.70;;;3.28;;
64487;SDS011;50864;45.050;39.014;2023-07-13T07:14:54;8.63;;;5.00;;
64487;SDS011;50864;45.050;39.014;2023-07-13T07:17:20;6.35;;;3.80;;
64487;SDS011;50864;45.050;39.014;2023-07-13T07:19:46;7.95;;;3.85;;
64487;SDS011;50864;45.050;39.014;2023-07-13T07:22:11;7.82;;;3.50;;
64487;SDS011;50864;45.050;39.014;2023-07-13T07:24:37;5.43;;;3.33;;
64487;SDS011;50864;45.050;39.014;2023-07-13T07:27:03;5.53;;;3.17;;
64487;SDS011;50864;45.050;39.014;2023-07-13T07:29:29;4.70;;;3.08;;
64487;SDS011;50864;45.050;39.014;2023-07-13T07:31:55;5.35;;;4.03;;
64487;SDS011;50864;45.050;39.014;2023-07-13T07:34:20;6.30;;;3.37;;
64487;SDS011;50864;45.050;39.014;2023-07-13T07:36:46;6.75;;;3.22;;
64487;SDS011;50864;45.050;39.014;2023-07-13T07:39:12;4.28;;;2.90;;
64487;SDS011;50864;45.050;39.014;2023-07-13T07:41:38;6.68;;;3.40;;
64487;SDS011;50864;45.050;39.014;2023-07-13T07:44:04;6.20;;;3.87;;
64487;SDS011;50864;45.050;39.014;2023-07-13T07:46:30;5.87;;;3.85;;
64487;SDS011;50864;45.050;39.014;2023-07-13T07:48:56;6.75;;;3.40;;
64487;SDS011;50864;45.050;39.014;2023-07-13T07:51:21;5.32;;;3.20;;
64487;SDS011;50864;45.050;39.014;2023-07-13T07:53:48;6.72;;;3.35;;
64487;SDS011;50864;45.050;39.014;2023-07-13T07:56:13;7.47;;;4.03;;
64487;SDS011;50864;45.050;39.014;2023-07-13T07:58:41;7.18;;;3.25;;
64487;SDS011;50864;45.050;39.014;2023-07-13T08:01:07;5.78;;;3.28;;
64487;SDS011;50864;45.050;39.014;2023-07-13T08:03:34;5.37;;;3.05;;
64487;SDS011;50864;45.050;39.014;2023-07-13T08:06:00;9.98;;;3.60;;
64487;SDS011;50864;45.050;39.014;2023-07-13T08:08:28;7.97;;;3.20;;
64487;SDS011;50864;45.050;39.014;2023-07-13T08:10:54;6.18;;;3.30;;
64487;SDS011;50864;45.050;39.014;2023-07-13T08:13:20;6.85;;;3.92;;
64487;SDS011;50864;45.050;39.014;2023-07-13T08:15:46;13.32;;;4.18;;
64487;SDS011;50864;45.050;39.014;2023-07-13T08:18:12;20.95;;;5.55;;
64487;SDS011;50864;45.050;39.014;2023-07-13T08:20:40;7.62;;;3.50;;
64487;SDS011;50864;45.050;39.014;2023-07-13T08:23:07;6.70;;;3.60;;
64487;SDS011;50864;45.050;39.014;2023-07-13T08:25:34;14.35;;;4.35;;
64487;SDS011;50864;45.050;39.014;2023-07-13T08:27:59;7.60;;;3.58;;
64487;SDS011;50864;45.050;39.014;2023-07-13T08:30:25;6.62;;;3.12;;
64487;SDS011;50864;45.050;39.014;2023-07-13T08:32:51;7.28;;;3.97;;
64487;SDS011;50864;45.050;39.014;2023-07-13T08:35:17;6.65;;;3.53;;
64487;SDS011;50864;45.050;39.014;2023-07-13T08:37:43;6.57;;;3.42;;
64487;SDS011;50864;45.050;39.014;2023-07-13T08:40:10;5.20;;;3.70;;
64487;SDS011;50864;45.050;39.014;2023-07-13T08:42:37;4.72;;;3.15;;
64487;SDS011;50864;45.050;39.014;2023-07-13T08:45:19;6.10;;;3.25;;
64487;SDS011;50864;45.050;39.014;2023-07-13T08:47:47;7.28;;;3.65;;
64487;SDS011;50864;45.050;39.014;2023-07-13T08:50:15;7.68;;;3.15;;
64487;SDS011;50864;45.050;39.014;2023-07-13T08:52:42;5.10;;;3.20;;
64487;SDS011;50864;45.050;39.014;2023-07-13T08:57:37;5.82;;;3.28;;
64487;SDS011;50864;45.050;39.014;2023-07-13T09:00:05;6.00;;;3.40;;
64487;SDS011;50864;45.050;39.014;2023-07-13T09:02:42;6.03;;;3.00;;
64487;SDS011;50864;45.050;39.014;2023-07-13T09:05:18;8.77;;;4.30;;
64487;SDS011;50864;45.050;39.014;2023-07-13T09:10:18;5.70;;;3.22;;
64487;SDS011;50864;45.050;39.014;2023-07-13T09:12:50;6.55;;;3.30;;
64487;SDS011;50864;45.050;39.014;2023-07-13T09:17:50;9.07;;;3.47;;
64487;SDS011;50864;45.050;39.014;2023-07-13T09:20:25;7.87;;;3.30;;
64487;SDS011;50864;45.050;39.014;2023-07-13T09:22:52;11.10;;;5.87;;
64487;SDS011;50864;45.050;39.014;2023-07-13T09:28:02;7.60;;;3.62;;
64487;SDS011;50864;45.050;39.014;2023-07-13T09:30:54;7.25;;;3.50;;
64487;SDS011;50864;45.050;39.014;2023-07-13T09:33:19;4.45;;;2.95;;
64487;SDS011;50864;45.050;39.014;2023-07-13T09:35:45;7.32;;;3.60;;
64487;SDS011;50864;45.050;39.014;2023-07-13T09:38:15;7.53;;;3.28;;
64487;SDS011;50864;45.050;39.014;2023-07-13T09:43:25;6.65;;;3.10;;
64487;SDS011;50864;45.050;39.014;2023-07-13T09:45:51;10.93;;;3.92;;
64487;SDS011;50864;45.050;39.014;2023-07-13T09:48:17;6.12;;;3.25;;
64487;SDS011;50864;45.050;39.014;2023-07-13T09:50:43;6.15;;;3.45;;
64487;SDS011;50864;45.050;39.014;2023-07-13T09:53:13;4.75;;;2.78;;
64487;SDS011;50864;45.050;39.014;2023-07-13T09:55:40;5.43;;;3.08;;
64487;SDS011;50864;45.050;39.014;2023-07-13T09:58:10;4.62;;;2.97;;
64487;SDS011;50864;45.050;39.014;2023-07-13T10:00:37;6.45;;;3.22;;
64487;SDS011;50864;45.050;39.014;2023-07-13T10:03:05;7.40;;;3.17;;
64487;SDS011;50864;45.050;39.014;2023-07-13T10:05:38;5.95;;;3.12;;
64487;SDS011;50864;45.050;39.014;2023-07-13T10:08:04;5.40;;;2.85;;
64487;SDS011;50864;45.050;39.014;2023-07-13T10:10:32;7.53;;;3.00;;
64487;SDS011;50864;45.050;39.014;2023-07-13T10:12:58;6.35;;;3.10;;
64487;SDS011;50864;45.050;39.014;2023-07-13T10:15:24;6.18;;;3.20;;
64487;SDS011;50864;45.050;39.014;2023-07-13T10:17:51;6.72;;;3.12;;
64487;SDS011;50864;45.050;39.014;2023-07-13T10:20:17;6.22;;;3.00;;
64487;SDS011;50864;45.050;39.014;2023-07-13T10:25:19;5.18;;;2.95;;
64487;SDS011;50864;45.050;39.014;2023-07-13T10:27:45;5.32;;;3.08;;
64487;SDS011;50864;45.050;39.014;2023-07-13T10:30:19;6.20;;;2.83;;
64487;SDS011;50864;45.050;39.014;2023-07-13T10:32:46;4.43;;;2.70;;
64487;SDS011;50864;45.050;39.014;2023-07-13T10:35:13;4.47;;;2.70;;
64487;SDS011;50864;45.050;39.014;2023-07-13T10:37:44;6.03;;;3.10;;
64487;SDS011;50864;45.050;39.014;2023-07-13T10:40:13;7.00;;;3.10;;
64487;SDS011;50864;45.050;39.014;2023-07-13T10:42:58;5.22;;;2.70;;
64487;SDS011;50864;45.050;39.014;2023-07-13T10:45:28;5.80;;;3.20;;
64487;SDS011;50864;45.050;39.014;2023-07-13T10:47:57;4.28;;;3.10;;
64487;SDS011;50864;45.050;39.014;2023-07-13T10:50:28;8.95;;;3.58;;
64487;SDS011;50864;45.050;39.014;2023-07-13T10:58:15;5.53;;;3.03;;
64487;SDS011;50864;45.050;39.014;2023-07-13T11:01:00;5.03;;;2.83;;
64487;SDS011;50864;45.050;39.014;2023-07-13T11:03:27;6.65;;;3.12;;
64487;SDS011;50864;45.050;39.014;2023-07-13T11:06:04;7.53;;;3.20;;
64487;SDS011;50864;45.050;39.014;2023-07-13T11:08:33;5.43;;;3.05;;
64487;SDS011;50864;45.050;39.014;2023-07-13T11:10:59;4.53;;;3.00;;
64487;SDS011;50864;45.050;39.014;2023-07-13T11:13:38;6.87;;;3.17;;
64487;SDS011;50864;45.050;39.014;2023-07-13T11:18:52;4.62;;;3.17;;
64487;SDS011;50864;45.050;39.014;2023-07-13T11:21:22;4.57;;;2.80;;
64487;SDS011;50864;45.050;39.014;2023-07-13T11:23:51;6.20;;;3.58;;
64487;SDS011;50864;45.050;39.014;2023-07-13T11:29:08;6.45;;;2.97;;
64487;SDS011;50864;45.050;39.014;2023-07-13T11:31:33;4.43;;;2.90;;
64487;SDS011;50864;45.050;39.014;2023-07-13T11:33:59;5.15;;;3.20;;
64487;SDS011;50864;45.050;39.014;2023-07-13T11:36:29;5.53;;;2.90;;
64487;SDS011;50864;45.050;39.014;2023-07-13T11:41:26;6.65;;;3.42;;
64487;SDS011;50864;45.050;39.014;2023-07-13T11:43:55;5.60;;;3.55;;
64487;SDS011;50864;45.050;39.014;2023-07-13T11:46:23;5.68;;;3.15;;
64487;SDS011;50864;45.050;39.014;2023-07-13T11:48:49;6.93;;;3.20;;
64487;SDS011;50864;45.050;39.014;2023-07-13T11:53:47;5.78;;;3.40;;
64487;SDS011;50864;45.050;39.014;2023-07-13T11:56:22;6.87;;;3.20;;
64487;SDS011;50864;45.050;39.014;2023-07-13T11:58:53;7.60;;;3.15;;
64487;SDS011;50864;45.050;39.014;2023-07-13T12:01:20;7.35;;;3.47;;
64487;SDS011;50864;45.050;39.014;2023-07-13T12:03:47;6.03;;;3.30;;
64487;SDS011;50864;45.050;39.014;2023-07-13T12:06:27;5.95;;;3.40;;
64487;SDS011;50864;45.050;39.014;2023-07-13T12:09:03;7.82;;;3.17;;
64487;SDS011;50864;45.050;39.014;2023-07-13T12:11:39;6.90;;;3.20;;
64487;SDS011;50864;45.050;39.014;2023-07-13T12:14:05;7.45;;;3.45;;
64487;SDS011;50864;45.050;39.014;2023-07-13T12:16:32;6.65;;;3.78;;
64487;SDS011;50864;45.050;39.014;2023-07-13T12:19:01;8.10;;;3.85;;
64487;SDS011;50864;45.050;39.014;2023-07-13T12:21:30;5.18;;;3.35;;
64487;SDS011;50864;45.050;39.014;2023-07-13T12:23:56;5.32;;;3.35;;
64487;SDS011;50864;45.050;39.014;2023-07-13T12:26:22;6.80;;;3.20;;
64487;SDS011;50864;45.050;39.014;2023-07-13T12:28:49;5.22;;;3.17;;
64487;SDS011;50864;45.050;39.014;2023-07-13T12:31:25;5.37;;;3.20;;
64487;SDS011;50864;45.050;39.014;2023-07-13T12:33:56;5.75;;;3.12;;
64487;SDS011;50864;45.050;39.014;2023-07-13T12:36:22;5.20;;;3.37;;
64487;SDS011;50864;45.050;39.014;2023-07-13T12:38:48;8.23;;;3.67;;
64487;SDS011;50864;45.050;39.014;2023-07-13T12:41:14;7.87;;;3.20;;
64487;SDS011;50864;45.050;39.014;2023-07-13T12:43:40;6.78;;;3.10;;
64487;SDS011;50864;45.050;39.014;2023-07-13T12:46:19;5.57;;;3.10;;
64487;SDS011;50864;45.050;39.014;2023-07-13T12:48:56;7.20;;;3.70;;
64487;SDS011;50864;45.050;39.014;2023-07-13T12:51:24;7.62;;;3.08;;
64487;SDS011;50864;45.050;39.014;2023-07-13T12:53:55;6.20;;;3.37;;
64487;SDS011;50864;45.050;39.014;2023-07-13T12:56:22;7.93;;;3.50;;
64487;SDS011;50864;45.050;39.014;2023-07-13T12:58:48;5.25;;;3.47;;
64487;SDS011;50864;45.050;39.014;2023-07-13T13:01:21;6.37;;;3.62;;
64487;SDS011;50864;45.050;39.014;2023-07-13T13:03:48;7.30;;;3.87;;
64487;SDS011;50864;45.050;39.014;2023-07-13T13:08:48;7.68;;;4.12;;
64487;SDS011;50864;45.050;39.014;2023-07-13T13:11:14;5.10;;;3.03;;
64487;SDS011;50864;45.050;39.014;2023-07-13T13:13:42;6.10;;;3.10;;
64487;SDS011;50864;45.050;39.014;2023-07-13T13:16:09;6.25;;;3.30;;
64487;SDS011;50864;45.050;39.014;2023-07-13T13:18:36;8.85;;;3.70;;
64487;SDS011;50864;45.050;39.014;2023-07-13T13:21:02;8.07;;;3.87;;
64487;SDS011;50864;45.050;39.014;2023-07-13T13:23:28;6.50;;;3.22;;
64487;SDS011;50864;45.050;39.014;2023-07-13T13:25:54;6.82;;;3.47;;
64487;SDS011;50864;45.050;39.014;2023-07-13T13:28:20;7.78;;;3.40;;
64487;SDS011;50864;45.050;39.014;2023-07-13T13:30:47;5.85;;;3.42;;
64487;SDS011;50864;45.050;39.014;2023-07-13T13:33:14;5.20;;;2.97;;
64487;SDS011;50864;45.050;39.014;2023-07-13T13:35:40;5.90;;;3.40;;
64487;SDS011;50864;45.050;39.014;2023-07-13T13:38:14;6.68;;;3.40;;
64487;SDS011;50864;45.050;39.014;2023-07-13T13:40:40;5.90;;;3.53;;
64487;SDS011;50864;45.050;39.014;2023-07-13T13:45:45;8.27;;;3.95;;
64487;SDS011;50864;45.050;39.014;2023-07-13T13:48:15;6.57;;;3.90;;
64487;SDS011;50864;45.050;39.014;2023-07-13T13:50:41;5.12;;;3.37;;
64487;SDS011;50864;45.050;39.014;2023-07-13T13:53:09;6.37;;;3.50;;
64487;SDS011;50864;45.050;39.014;2023-07-13T13:55:35;8.48;;;3.67;;
64487;SDS011;50864;45.050;39.014;2023-07-13T13:58:01;7.65;;;4.30;;
64487;SDS011;50864;45.050;39.014;2023-07-13T14:00:26;7.22;;;4.68;;
64487;SDS011;50864;45.050;39.014;2023-07-13T14:02:52;8.25;;;5.30;;
64487;SDS011;50864;45.050;39.014;2023-07-13T14:05:22;10.07;;;6.07;;
64487;SDS011;50864;45.050;39.014;2023-07-13T14:07:48;10.68;;;7.03;;
64487;SDS011;50864;45.050;39.014;2023-07-13T14:10:16;9.13;;;6.62;;
64487;SDS011;50864;45.050;39.014;2023-07-13T14:12:43;10.15;;;5.53;;
64487;SDS011;50864;45.050;39.014;2023-07-13T14:15:33;8.70;;;4.75;;
64487;SDS011;50864;45.050;39.014;2023-07-13T14:17:59;6.97;;;4.00;;
64487;SDS011;50864;45.050;39.014;2023-07-13T14:20:25;6.40;;;3.50;;
64487;SDS011;50864;45.050;39.014;2023-07-13T14:22:51;8.52;;;3.47;;
64487;SDS011;50864;45.050;39.014;2023-07-13T14:25:18;6.20;;;3.72;;
64487;SDS011;50864;45.050;39.014;2023-07-13T14:27:44;6.10;;;3.37;;
64487;SDS011;50864;45.050;39.014;2023-07-13T14:30:14;6.57;;;3.30;;
64487;SDS011;50864;45.050;39.014;2023-07-13T14:32:41;5.93;;;3.92;;
64487;SDS011;50864;45.050;39.014;2023-07-13T14:35:10;6.32;;;3.70;;
64487;SDS011;50864;45.050;39.014;2023-07-13T14:37:36;7.60;;;3.67;;
64487;SDS011;50864;45.050;39.014;2023-07-13T14:40:04;6.82;;;4.28;;
64487;SDS011;50864;45.050;39.014;2023-07-13T14:42:36;8.25;;;3.17;;
64487;SDS011;50864;45.050;39.014;2023-07-13T14:45:03;7.65;;;3.40;;
64487;SDS011;50864;45.050;39.014;2023-07-13T14:47:28;7.15;;;3.20;;
64487;SDS011;50864;45.050;39.014;2023-07-13T14:49:54;5.93;;;3.60;;
64487;SDS011;50864;45.050;39.014;2023-07-13T14:52:21;6.10;;;3.53;;
64487;SDS011;50864;45.050;39.014;2023-07-13T14:54:48;6.00;;;3.75;;
64487;SDS011;50864;45.050;39.014;2023-07-13T14:57:15;6.22;;;3.72;;
64487;SDS011;50864;45.050;39.014;2023-07-13T14:59:41;7.28;;;3.72;;
64487;SDS011;50864;45.050;39.014;2023-07-13T15:02:20;9.05;;;4.03;;
64487;SDS011;50864;45.050;39.014;2023-07-13T15:04:49;8.20;;;3.87;;
64487;SDS011;50864;45.050;39.014;2023-07-13T15:07:15;7.50;;;3.78;;
64487;SDS011;50864;45.050;39.014;2023-07-13T15:09:43;7.65;;;4.47;;
64487;SDS011;50864;45.050;39.014;2023-07-13T15:12:09;7.70;;;4.20;;
64487;SDS011;50864;45.050;39.014;2023-07-13T15:14:35;7.45;;;4.05;;